Time;durP1;ratioP1;P1;durP2;ratioP2;P2;SDS_P1;SDS_P2;PMS_P1;PMS_P2;Temp;Humidity;BMP_temperature;BMP_pressure;BME280_temperature;BME280_humidity;BME280_pressure;Samples;Min_cycle;Max_cycle;Signal;HPM_P1;HPM_P2
2023/04/16 00:00:24;;;;;;;2.43;2.33;;;6.10;99.90;;;;;;5094172;28;20192;-81
2023/04/16 00:02:50;;;;;;;3.37;2.63;;;6.00;99.90;;;;;;5094596;28;20167;-78
2023/04/16 00:05:16;;;;;;;3.83;2.57;;;6.00;99.90;;;;;;5094492;28;20168;-76
2023/04/16 00:07:42;;;;;;;2.37;2.17;;;6.00;99.90;;;;;;5094216;28;20174;-76
2023/04/16 00:10:08;;;;;;;2.50;2.40;;;6.00;99.90;;;;;;5093934;28;20257;-79
2023/04/16 00:12:33;;;;;;;2.40;2.30;;;5.90;99.90;;;;;;5094579;28;20532;-75
2023/04/16 00:14:59;;;;;;;3.00;2.70;;;5.90;99.90;;;;;;5099602;28;20181;-79
2023/04/16 00:17:25;;;;;;;2.80;2.60;;;5.90;99.90;;;;;;5106588;28;20234;-78
2023/04/16 00:19:50;;;;;;;3.20;2.90;;;5.90;99.90;;;;;;5104274;28;20248;-78
2023/04/16 00:22:16;;;;;;;5.03;2.70;;;5.90;99.90;;;;;;5101119;28;20588;-76
2023/04/16 00:24:42;;;;;;;2.90;2.70;;;5.90;99.90;;;;;;5097020;28;20203;-77
2023/04/16 00:27:08;;;;;;;2.60;2.50;;;6.00;99.90;;;;;;5097098;28;20284;-76
2023/04/16 00:29:33;;;;;;;2.73;2.63;;;6.00;99.90;;;;;;5100098;28;20230;-75
2023/04/16 00:32:02;;;;;;;2.50;2.40;;;5.90;99.90;;;;;;5095710;28;20623;-81
2023/04/16 00:34:27;;;;;;;2.87;2.67;;;5.90;99.90;;;;;;5095390;28;20212;-76
2023/04/16 00:36:53;;;;;;;2.73;2.53;;;5.80;99.90;;;;;;5094577;28;20645;-76
2023/04/16 00:39:22;;;;;;;3.87;2.50;;;5.80;99.90;;;;;;5094662;28;20211;-77
2023/04/16 00:41:48;;;;;;;2.17;2.07;;;5.80;99.90;;;;;;5092911;28;20178;-81
2023/04/16 00:44:15;;;;;;;2.30;2.20;;;5.70;99.90;;;;;;5098765;28;20171;-78
2023/04/16 00:46:41;;;;;;;2.70;2.50;;;5.70;99.90;;;;;;5099116;28;20171;-77
2023/04/16 00:49:08;;;;;;;2.00;1.90;;;5.70;99.90;;;;;;5095313;28;20256;-77
2023/04/16 00:51:37;;;;;;;2.30;2.20;;;5.70;99.90;;;;;;5092571;28;20185;-81
2023/04/16 00:54:03;;;;;;;2.30;2.20;;;5.70;99.90;;;;;;5093814;28;20176;-76
2023/04/16 00:56:29;;;;;;;1.97;1.87;;;5.70;99.90;;;;;;5093660;28;20182;-81
2023/04/16 00:58:55;;;;;;;2.37;2.17;;;5.60;99.90;;;;;;5092987;28;20249;-80
2023/04/16 01:01:21;;;;;;;1.97;1.83;;;5.60;99.90;;;;;;5093061;28;20232;-81
2023/04/16 01:03:48;;;;;;;2.00;1.90;;;5.60;99.90;;;;;;5093214;28;20178;-77
2023/04/16 01:06:16;;;;;;;3.87;1.80;;;5.60;99.90;;;;;;5093116;28;20178;-77
2023/04/16 01:08:42;;;;;;;2.30;2.20;;;5.70;99.90;;;;;;5093024;28;20162;-77
2023/04/16 01:11:09;;;;;;;1.70;1.60;;;5.70;99.90;;;;;;5092840;28;20247;-76
2023/04/16 01:13:38;;;;;;;1.90;1.80;;;5.70;99.90;;;;;;5093047;28;20221;-78
2023/04/16 01:16:06;;;;;;;1.70;1.70;;;5.70;99.90;;;;;;5093086;28;20174;-81
2023/04/16 01:18:32;;;;;;;3.47;2.10;;;5.70;99.90;;;;;;5092989;28;20207;-80
2023/04/16 01:21:01;;;;;;;1.90;1.80;;;5.70;99.90;;;;;;5091649;28;20285;-79
2023/04/16 01:23:27;;;;;;;2.57;2.00;;;5.80;99.90;;;;;;5093483;28;20170;-80
2023/04/16 01:25:53;;;;;;;1.70;1.60;;;5.80;99.90;;;;;;5094287;28;20176;-76
2023/04/16 01:28:18;;;;;;;1.77;1.67;;;5.80;99.90;;;;;;5094443;28;20208;-78
2023/04/16 01:30:44;;;;;;;1.90;1.80;;;5.80;99.90;;;;;;5092364;28;20278;-76
2023/04/16 01:33:10;;;;;;;4.37;2.10;;;5.80;99.90;;;;;;5092938;28;20179;-79
2023/04/16 01:35:37;;;;;;;2.27;2.17;;;5.90;99.90;;;;;;5092852;28;20174;-79
2023/04/16 01:38:04;;;;;;;2.33;1.80;;;6.00;99.90;;;;;;5092916;28;20208;-78
2023/04/16 01:40:30;;;;;;;2.00;1.90;;;6.00;99.90;;;;;;5092531;28;20180;-81
2023/04/16 01:42:59;;;;;;;1.90;1.80;;;5.90;99.90;;;;;;5092236;28;20191;-81
2023/04/16 01:45:25;;;;;;;2.10;2.00;;;5.90;99.90;;;;;;5092707;28;20185;-76
2023/04/16 01:47:51;;;;;;;2.20;2.10;;;6.00;99.90;;;;;;5092996;28;20169;-78
2023/04/16 01:50:18;;;;;;;2.13;2.03;;;6.00;99.90;;;;;;5097772;28;20219;-82
2023/04/16 01:52:46;;;;;;;2.00;1.90;;;5.90;99.90;;;;;;5093229;28;20534;-82
2023/04/16 01:55:12;;;;;;;2.00;1.90;;;5.80;99.90;;;;;;5093195;28;20192;-81
2023/04/16 01:57:38;;;;;;;2.00;1.90;;;5.80;99.90;;;;;;5091916;28;20240;-79
2023/04/16 02:00:05;;;;;;;1.90;1.80;;;5.90;99.90;;;;;;5095126;28;20271;-80
2023/04/16 02:02:31;;;;;;;2.00;1.90;;;5.90;99.90;;;;;;5096085;28;20175;-77
2023/04/16 02:05:00;;;;;;;1.97;1.87;;;5.80;99.90;;;;;;5099513;28;20174;-76
2023/04/16 02:07:26;;;;;;;2.20;2.10;;;5.80;99.90;;;;;;5103777;28;20175;-77
2023/04/16 02:09:52;;;;;;;2.40;2.30;;;5.70;99.90;;;;;;5106622;28;20170;-79
2023/04/16 02:12:19;;;;;;;2.03;1.93;;;5.80;99.90;;;;;;5097149;28;20193;-77
2023/04/16 02:14:45;;;;;;;2.40;2.30;;;5.80;99.90;;;;;;5095450;28;20254;-76
2023/04/16 02:17:11;;;;;;;2.97;2.43;;;5.70;99.90;;;;;;5093676;28;20172;-76
2023/04/16 02:19:37;;;;;;;2.37;2.17;;;5.70;99.90;;;;;;5093032;28;20261;-78
2023/04/16 02:22:02;;;;;;;2.30;2.20;;;5.70;99.90;;;;;;5093337;28;20213;-78
2023/04/16 02:24:28;;;;;;;2.77;2.00;;;5.70;99.90;;;;;;5093975;28;20591;-77
2023/04/16 02:26:55;;;;;;;2.07;1.97;;;5.60;99.90;;;;;;5091446;28;20183;-75
2023/04/16 02:29:21;;;;;;;2.53;2.43;;;5.70;99.90;;;;;;5092378;28;20184;-77
2023/04/16 02:31:47;;;;;;;2.47;2.27;;;5.60;99.90;;;;;;5091135;28;20180;-79
2023/04/16 02:34:13;;;;;;;2.20;2.10;;;5.70;99.90;;;;;;5091033;28;20183;-79
2023/04/16 02:36:39;;;;;;;2.40;2.27;;;5.60;99.90;;;;;;5092309;28;20235;-80
2023/04/16 02:39:05;;;;;;;2.43;2.30;;;5.60;99.90;;;;;;5092186;28;20297;-81
2023/04/16 02:41:31;;;;;;;3.63;2.60;;;5.50;99.90;;;;;;5094043;28;20262;-80
2023/04/16 02:43:57;;;;;;;2.60;2.40;;;5.50;99.90;;;;;;5096383;28;20170;-80
2023/04/16 02:46:22;;;;;;;2.60;2.50;;;5.50;99.90;;;;;;5095001;28;20177;-81
2023/04/16 02:48:48;;;;;;;2.93;2.70;;;5.50;99.90;;;;;;5096313;28;20179;-79
2023/04/16 02:51:14;;;;;;;2.57;2.47;;;5.60;99.90;;;;;;5094808;28;20178;-77
2023/04/16 02:53:40;;;;;;;3.00;2.80;;;5.50;99.90;;;;;;5096478;28;20178;-80
2023/04/16 02:56:06;;;;;;;2.67;2.47;;;5.60;99.90;;;;;;5096484;28;20631;-78
2023/04/16 02:58:32;;;;;;;2.97;2.77;;;5.50;99.90;;;;;;5094800;28;20229;-82
2023/04/16 03:00:58;;;;;;;3.10;2.90;;;5.60;99.90;;;;;;5097299;28;20269;-82
2023/04/16 03:03:24;;;;;;;2.50;2.40;;;5.60;99.90;;;;;;5096744;28;20205;-83
2023/04/16 03:05:50;;;;;;;3.03;2.73;;;5.60;99.90;;;;;;5096580;28;20677;-84
2023/04/16 03:08:15;;;;;;;2.87;2.60;;;5.60;99.90;;;;;;5097085;28;20204;-81
2023/04/16 03:10:41;;;;;;;3.30;3.10;;;5.60;99.90;;;;;;5096610;28;20205;-82
2023/04/16 03:13:07;;;;;;;2.30;2.20;;;5.50;99.90;;;;;;5096487;28;20525;-81
2023/04/16 03:15:33;;;;;;;2.83;2.63;;;5.50;99.90;;;;;;5096733;28;20166;-81
2023/04/16 03:17:59;;;;;;;3.60;2.50;;;5.50;99.90;;;;;;5096641;28;20214;-80
2023/04/16 03:20:25;;;;;;;2.30;2.20;;;5.50;99.90;;;;;;5101059;28;20174;-82
2023/04/16 03:22:53;;;;;;;2.80;2.60;;;5.50;99.90;;;;;;5110470;28;20186;-80
2023/04/16 03:25:19;;;;;;;3.23;2.67;;;5.60;99.90;;;;;;5102579;28;20198;-83
2023/04/16 03:27:45;;;;;;;2.70;2.50;;;5.60;99.90;;;;;;5096477;28;20965;-79
2023/04/16 03:30:12;;;;;;;3.20;2.90;;;5.50;99.90;;;;;;5094820;28;20250;-80
2023/04/16 03:32:38;;;;;;;2.90;2.80;;;5.50;99.90;;;;;;5102422;28;20243;-78
2023/04/16 03:35:05;;;;;;;2.83;2.70;;;5.50;99.90;;;;;;5095624;28;20174;-77
2023/04/16 03:37:31;;;;;;;2.70;2.50;;;5.40;99.90;;;;;;5095251;28;20198;-80
2023/04/16 03:39:57;;;;;;;2.93;2.73;;;5.40;99.90;;;;;;5095438;28;20934;-76
2023/04/16 03:42:23;;;;;;;2.90;2.70;;;5.40;99.90;;;;;;5093977;28;20202;-77
2023/04/16 03:44:48;;;;;;;2.67;2.47;;;5.40;99.90;;;;;;5094916;28;20209;-75
2023/04/16 03:47:14;;;;;;;3.23;3.03;;;5.30;99.90;;;;;;5095082;28;20174;-76
2023/04/16 03:49:40;;;;;;;3.90;2.70;;;5.30;99.90;;;;;;5095213;28;20180;-80
2023/04/16 03:52:06;;;;;;;3.00;2.80;;;5.30;99.90;;;;;;5094689;28;20896;-77
2023/04/16 03:54:31;;;;;;;2.67;2.57;;;5.30;99.90;;;;;;5097025;28;20638;-79
2023/04/16 03:56:57;;;;;;;2.80;2.70;;;5.30;99.90;;;;;;5111810;28;20197;-80
2023/04/16 03:59:23;;;;;;;3.13;2.93;;;5.30;99.90;;;;;;5101949;28;20209;-77
2023/04/16 04:01:49;;;;;;;3.10;2.90;;;5.30;99.90;;;;;;5096744;28;20636;-79
2023/04/16 04:04:15;;;;;;;3.10;2.90;;;5.30;99.90;;;;;;5095798;28;20297;-78
2023/04/16 04:06:41;;;;;;;3.40;3.17;;;5.30;99.90;;;;;;5095808;28;20264;-84
2023/04/16 04:09:07;;;;;;;3.23;3.03;;;5.30;99.90;;;;;;5095355;28;20533;-78
2023/04/16 04:11:34;;;;;;;3.13;2.93;;;5.30;99.90;;;;;;5094022;28;20232;-78
2023/04/16 04:14:00;;;;;;;3.23;3.03;;;5.20;99.90;;;;;;5093844;28;20219;-79
2023/04/16 04:16:25;;;;;;;3.47;3.27;;;5.30;99.90;;;;;;5093481;28;20270;-76
2023/04/16 04:18:51;;;;;;;3.67;3.33;;;5.30;99.90;;;;;;5093453;28;20206;-75
2023/04/16 04:21:18;;;;;;;3.67;3.20;;;5.40;99.90;;;;;;5094721;28;20214;-75
2023/04/16 04:23:44;;;;;;;3.10;2.90;;;5.40;99.90;;;;;;5093455;28;20240;-78
2023/04/16 04:26:10;;;;;;;3.70;3.40;;;5.50;99.90;;;;;;5093496;28;20174;-78
2023/04/16 04:28:36;;;;;;;3.80;3.50;;;5.50;99.90;;;;;;5093157;28;20194;-78
2023/04/16 04:31:01;;;;;;;3.53;3.30;;;5.50;99.90;;;;;;5093098;28;20193;-77
2023/04/16 04:33:28;;;;;;;3.97;3.43;;;5.50;99.90;;;;;;5093796;28;20180;-77
2023/04/16 04:35:54;;;;;;;3.10;2.90;;;5.40;99.90;;;;;;5092932;28;20208;-76
2023/04/16 04:38:23;;;;;;;3.40;3.20;;;5.40;99.90;;;;;;5094739;28;20710;-77
2023/04/16 04:40:52;;;;;;;3.97;3.57;;;5.40;99.90;;;;;;5094483;28;20236;-77
2023/04/16 04:43:19;;;;;;;3.70;3.50;;;5.40;99.90;;;;;;5097115;28;20185;-75
2023/04/16 04:45:45;;;;;;;3.67;3.37;;;5.50;99.90;;;;;;5094407;28;20197;-79
2023/04/16 04:48:12;;;;;;;3.40;3.20;;;5.50;99.90;;;;;;5094094;28;20174;-80
2023/04/16 04:50:39;;;;;;;4.27;3.70;;;5.50;99.90;;;;;;5093071;28;20178;-75
2023/04/16 04:53:13;;;;;;;4.17;3.87;;;5.50;99.90;;;;;;5097418;28;20169;-75
2023/04/16 04:55:39;;;;;;;3.40;3.20;;;5.60;99.90;;;;;;5096751;28;20171;-75
2023/04/16 04:58:06;;;;;;;4.10;3.43;;;5.60;99.90;;;;;;5095189;28;20330;-75
2023/04/16 05:00:33;;;;;;;5.33;3.70;;;5.60;99.90;;;;;;5094247;28;20218;-80
2023/04/16 05:03:02;;;;;;;3.50;3.30;;;5.60;99.90;;;;;;5100911;28;20207;-77
2023/04/16 05:05:28;;;;;;;3.43;3.23;;;5.60;99.90;;;;;;5097492;28;20622;-76
2023/04/16 05:07:54;;;;;;;3.80;3.40;;;5.70;99.90;;;;;;5094344;28;20179;-82
2023/04/16 05:10:19;;;;;;;3.90;3.60;;;5.70;99.90;;;;;;5094258;28;20180;-76
2023/04/16 05:12:47;;;;;;;3.60;3.40;;;5.70;99.90;;;;;;5093913;28;20174;-77
2023/04/16 05:15:13;;;;;;;3.50;3.30;;;5.80;99.90;;;;;;5093731;28;20228;-78
2023/04/16 05:17:39;;;;;;;3.70;3.40;;;5.80;99.90;;;;;;5092250;28;20206;-77
2023/04/16 05:20:06;;;;;;;3.57;3.37;;;5.90;99.90;;;;;;5093385;28;20235;-76
2023/04/16 05:22:31;;;;;;;3.43;3.23;;;5.90;99.90;;;;;;5093441;28;20230;-78
2023/04/16 05:24:57;;;;;;;3.30;3.10;;;6.00;99.90;;;;;;5093797;28;20176;-76
2023/04/16 05:27:26;;;;;;;3.63;3.33;;;6.10;99.90;;;;;;5093100;28;20270;-78
2023/04/16 05:29:52;;;;;;;3.83;3.53;;;6.20;99.90;;;;;;5092943;28;20177;-80
2023/04/16 05:32:17;;;;;;;3.20;3.00;;;6.20;99.90;;;;;;5093068;28;20531;-82
2023/04/16 05:34:43;;;;;;;3.20;3.00;;;6.20;99.90;;;;;;5092222;28;20218;-81
2023/04/16 05:37:09;;;;;;;3.40;3.17;;;6.30;99.90;;;;;;5093382;28;20164;-76
2023/04/16 05:39:35;;;;;;;3.47;3.27;;;6.30;99.90;;;;;;5092350;28;20212;-80
2023/04/16 05:42:00;;;;;;;3.63;3.27;;;6.30;99.90;;;;;;5094981;28;20171;-80
2023/04/16 05:44:26;;;;;;;3.30;3.10;;;6.40;99.90;;;;;;5104258;28;20246;-79
2023/04/16 05:46:52;;;;;;;3.70;3.33;;;6.40;99.90;;;;;;5105520;28;20197;-77
2023/04/16 05:49:18;;;;;;;3.67;3.37;;;6.50;99.90;;;;;;5096382;28;20224;-78
2023/04/16 05:51:43;;;;;;;2.83;2.63;;;6.60;99.90;;;;;;5094999;28;20175;-81
2023/04/16 05:54:09;;;;;;;3.60;3.30;;;6.60;99.90;;;;;;5094165;28;20693;-80
2023/04/16 05:56:35;;;;;;;3.07;2.80;;;6.70;99.90;;;;;;5093785;28;20172;-79
2023/04/16 05:59:00;;;;;;;3.10;2.90;;;6.70;99.90;;;;;;5093143;28;20234;-77
2023/04/16 06:01:26;;;;;;;2.80;2.70;;;6.80;99.90;;;;;;5097475;28;20174;-77
2023/04/16 06:03:52;;;;;;;3.00;2.77;;;6.80;99.90;;;;;;5092106;28;20256;-77
2023/04/16 06:06:18;;;;;;;4.20;3.80;;;6.80;99.90;;;;;;5091906;28;20194;-76
2023/04/16 06:08:43;;;;;;;3.37;3.17;;;6.80;99.90;;;;;;5091449;28;20186;-77
2023/04/16 06:11:09;;;;;;;3.50;3.20;;;6.80;99.90;;;;;;5092884;28;20193;-78
2023/04/16 06:13:36;;;;;;;3.63;3.30;;;6.80;99.90;;;;;;5091943;28;20178;-77
2023/04/16 06:16:01;;;;;;;3.90;3.50;;;6.80;99.90;;;;;;5097387;28;20170;-78
2023/04/16 06:18:27;;;;;;;3.37;3.07;;;6.90;99.90;;;;;;5097650;28;20572;-80
2023/04/16 06:20:53;;;;;;;3.50;3.27;;;7.10;99.90;;;;;;5096653;28;20174;-79
2023/04/16 06:23:19;;;;;;;3.77;3.47;;;7.20;99.90;;;;;;5100341;28;20186;-78
2023/04/16 06:25:44;;;;;;;4.53;3.43;;;7.10;99.90;;;;;;5097769;28;20554;-75
2023/04/16 06:28:10;;;;;;;3.60;3.13;;;7.20;99.90;;;;;;5097543;28;20253;-79
2023/04/16 06:30:36;;;;;;;3.50;3.20;;;7.40;99.90;;;;;;5097355;28;20201;-78
2023/04/16 06:33:01;;;;;;;3.80;3.50;;;7.40;99.90;;;;;;5097093;28;20173;-78
2023/04/16 06:35:27;;;;;;;3.47;3.17;;;7.40;99.90;;;;;;5101648;28;20186;-77
2023/04/16 06:37:53;;;;;;;3.83;3.57;;;7.40;99.90;;;;;;5099436;28;20209;-78
2023/04/16 06:40:21;;;;;;;3.20;3.00;;;7.50;99.90;;;;;;5099613;28;20260;-76
2023/04/16 06:42:48;;;;;;;5.10;2.93;;;7.50;99.90;;;;;;5095835;28;20598;-77
2023/04/16 06:45:13;;;;;;;3.50;3.27;;;7.50;99.90;;;;;;5097165;28;20228;-78
2023/04/16 06:47:39;;;;;;;3.53;3.23;;;7.40;99.90;;;;;;5097261;28;20178;-81
2023/04/16 06:50:06;;;;;;;3.13;2.73;;;7.40;99.90;;;;;;5097443;28;20172;-77
2023/04/16 06:52:31;;;;;;;3.53;3.23;;;7.40;99.90;;;;;;5096079;28;20222;-76
2023/04/16 06:54:58;;;;;;;3.30;3.00;;;7.30;99.90;;;;;;5097603;28;20222;-80
2023/04/16 06:57:24;;;;;;;3.10;2.90;;;7.40;99.90;;;;;;5095513;28;20268;-77
2023/04/16 06:59:50;;;;;;;3.87;2.90;;;7.50;99.90;;;;;;5094195;28;20182;-76
2023/04/16 07:02:15;;;;;;;3.67;3.27;;;7.50;99.90;;;;;;5094350;28;20264;-76
2023/04/16 07:04:41;;;;;;;3.37;3.17;;;7.70;99.90;;;;;;5095733;28;20515;-78
2023/04/16 07:07:08;;;;;;;3.57;3.27;;;7.80;99.90;;;;;;5094478;28;20812;-79
2023/04/16 07:09:35;;;;;;;3.30;3.00;;;7.90;99.90;;;;;;5095008;28;20176;-79
2023/04/16 07:12:01;;;;;;;2.97;2.77;;;8.10;99.90;;;;;;5077490;28;20190;-82
2023/04/16 07:14:26;;;;;;;3.10;2.90;;;8.20;99.90;;;;;;5094767;28;20180;-78
2023/04/16 07:16:52;;;;;;;3.20;3.00;;;8.30;99.90;;;;;;5095972;28;20538;-76
2023/04/16 07:19:19;;;;;;;3.10;3.00;;;8.50;99.90;;;;;;5098100;28;20271;-80
2023/04/16 07:21:45;;;;;;;3.30;3.10;;;8.80;99.90;;;;;;5097371;28;20177;-77
2023/04/16 07:24:11;;;;;;;3.10;2.90;;;8.90;99.90;;;;;;5096004;28;20211;-76
2023/04/16 07:26:37;;;;;;;5.00;3.43;;;9.10;99.90;;;;;;5095972;28;20172;-76
2023/04/16 07:29:02;;;;;;;3.83;2.60;;;9.30;99.90;;;;;;5096764;28;20541;-78
2023/04/16 07:31:29;;;;;;;3.10;2.90;;;9.30;99.90;;;;;;5097729;28;20181;-82
2023/04/16 07:33:54;;;;;;;2.77;2.57;;;9.40;99.90;;;;;;5102880;28;20192;-77
2023/04/16 07:36:20;;;;;;;2.37;2.27;;;9.50;99.90;;;;;;5104241;28;20174;-77
2023/04/16 07:38:46;;;;;;;2.50;2.40;;;9.60;99.90;;;;;;5098591;28;20962;-78
2023/04/16 07:41:12;;;;;;;3.00;2.80;;;9.60;99.90;;;;;;5095402;28;20190;-76
2023/04/16 07:43:38;;;;;;;3.53;3.23;;;9.60;99.90;;;;;;5095400;28;20649;-80
2023/04/16 07:46:04;;;;;;;3.07;2.87;;;9.70;99.90;;;;;;5095301;28;20177;-78
2023/04/16 07:48:29;;;;;;;3.53;3.23;;;9.90;99.90;;;;;;5095624;28;20196;-77
2023/04/16 07:50:55;;;;;;;3.37;3.17;;;10.10;99.90;;;;;;5095610;28;20703;-78
2023/04/16 07:53:21;;;;;;;4.03;3.60;;;10.30;99.90;;;;;;5098718;28;20645;-76
2023/04/16 07:55:47;;;;;;;3.43;3.13;;;10.50;99.90;;;;;;5100627;28;20181;-77
2023/04/16 07:58:12;;;;;;;3.00;2.80;;;10.60;99.90;;;;;;5094697;28;20237;-76
2023/04/16 08:00:38;;;;;;;3.27;3.00;;;10.80;99.90;;;;;;5097441;28;20198;-77
2023/04/16 08:03:04;;;;;;;3.37;3.10;;;10.80;99.90;;;;;;5096785;28;20173;-78
2023/04/16 08:05:30;;;;;;;3.60;3.40;;;10.90;99.90;;;;;;5096319;28;20183;-77
2023/04/16 08:07:56;;;;;;;3.63;3.30;;;11.00;99.90;;;;;;5101909;28;20182;-78
2023/04/16 08:10:22;;;;;;;3.20;3.00;;;11.00;99.90;;;;;;5098561;28;20175;-77
2023/04/16 08:12:48;;;;;;;2.90;2.70;;;11.00;99.90;;;;;;5094697;28;20179;-75
2023/04/16 08:15:13;;;;;;;3.20;3.00;;;11.00;99.90;;;;;;5095072;28;20301;-75
2023/04/16 08:17:39;;;;;;;3.90;3.57;;;11.10;99.90;;;;;;5094901;28;20598;-80
2023/04/16 08:20:06;;;;;;;2.97;2.70;;;11.20;99.90;;;;;;5094341;28;20261;-76
2023/04/16 08:22:32;;;;;;;3.00;2.80;;;11.30;99.90;;;;;;5094641;28;20177;-77
2023/04/16 08:24:58;;;;;;;2.53;2.37;;;11.40;99.90;;;;;;5093782;28;20391;-78
2023/04/16 08:27:24;;;;;;;2.83;2.63;;;11.50;99.90;;;;;;5094619;28;20172;-78
2023/04/16 08:29:50;;;;;;;2.97;2.77;;;11.50;99.90;;;;;;5094044;28;20530;-80
2023/04/16 08:32:16;;;;;;;2.77;2.57;;;11.50;99.90;;;;;;5094156;28;20186;-78
2023/04/16 08:34:42;;;;;;;3.87;2.60;;;11.60;99.90;;;;;;5092749;28;20210;-78
2023/04/16 08:37:08;;;;;;;2.50;2.40;;;11.80;99.90;;;;;;5093485;28;20169;-80
2023/04/16 08:39:36;;;;;;;2.20;2.10;;;11.80;99.90;;;;;;5099657;28;20289;-77
2023/04/16 08:42:04;;;;;;;1.67;1.67;;;12.00;99.90;;;;;;5095727;28;20180;-75
2023/04/16 08:44:38;;;;;;;2.00;1.90;;;12.00;99.90;;;;;;5095521;28;20172;-77
2023/04/16 08:47:06;;;;;;;2.47;2.27;;;11.90;99.90;;;;;;5094417;28;20636;-77
2023/04/16 08:49:35;;;;;;;2.37;2.27;;;11.80;99.90;;;;;;5094170;28;20183;-75
2023/04/16 08:52:05;;;;;;;2.13;2.03;;;11.70;99.90;;;;;;5093912;28;20192;-77
2023/04/16 08:54:42;;;;;;;3.33;2.23;;;11.80;99.90;;;;;;5094160;28;20172;-78
2023/04/16 08:57:12;;;;;;;2.37;2.17;;;11.90;99.90;;;;;;5093868;28;20288;-78
2023/04/16 08:59:40;;;;;;;2.10;2.00;;;11.90;99.90;;;;;;5093489;28;20209;-80
2023/04/16 09:02:08;;;;;;;2.20;2.10;;;12.00;99.90;;;;;;5094074;28;20169;-77
2023/04/16 09:04:36;;;;;;;2.40;2.30;;;12.00;99.90;;;;;;5092716;28;20266;-81
2023/04/16 09:07:07;;;;;;;2.50;2.30;;;12.10;99.90;;;;;;5093731;28;20178;-78
2023/04/16 09:09:33;;;;;;;2.23;2.13;;;12.30;99.90;;;;;;5093374;28;20176;-77
2023/04/16 09:11:58;;;;;;;2.20;2.10;;;12.30;99.90;;;;;;5093570;28;20178;-79
2023/04/16 09:14:25;;;;;;;2.20;2.10;;;12.50;99.90;;;;;;5093728;28;20182;-81
2023/04/16 09:16:53;;;;;;;3.07;2.57;;;12.50;99.90;;;;;;5093599;28;20182;-76
2023/04/16 09:19:19;;;;;;;2.90;2.70;;;12.60;99.90;;;;;;5096636;28;20670;-78
2023/04/16 09:21:47;;;;;;;2.90;2.70;;;12.60;99.90;;;;;;5104721;28;20181;-81
2023/04/16 09:24:13;;;;;;;3.33;2.70;;;12.70;99.90;;;;;;5102278;28;20216;-82
2023/04/16 09:26:42;;;;;;;2.57;2.47;;;12.80;99.90;;;;;;5100637;28;20175;-77
2023/04/16 09:29:08;;;;;;;3.07;2.87;;;12.80;99.90;;;;;;5099174;28;20169;-78
2023/04/16 09:31:35;;;;;;;3.17;2.97;;;12.70;99.90;;;;;;5092779;28;20185;-76
2023/04/16 09:34:06;;;;;;;3.00;2.67;;;12.70;99.90;;;;;;5093651;28;20254;-79
2023/04/16 09:36:32;;;;;;;2.83;2.63;;;12.50;99.90;;;;;;5093766;28;20177;-76
2023/04/16 09:38:59;;;;;;;3.00;2.80;;;12.40;99.90;;;;;;5104550;28;20292;-80
2023/04/16 09:41:38;;;;;;;2.87;2.70;;;12.40;99.90;;;;;;5093381;28;20166;-77
2023/04/16 09:44:07;;;;;;;3.30;2.50;;;12.30;99.90;;;;;;5092946;28;20202;-76
2023/04/16 09:46:40;;;;;;;2.60;2.50;;;12.20;99.90;;;;;;5092289;28;20187;-77
2023/04/16 09:49:25;;;;;;;2.63;2.43;;;12.20;99.90;;;;;;5092266;28;20737;-77
2023/04/16 09:51:55;;;;;;;2.53;2.43;;;12.40;99.90;;;;;;5092367;28;20182;-78
2023/04/16 09:54:20;;;;;;;2.80;2.60;;;12.50;99.90;;;;;;5077054;28;20179;-79
2023/04/16 09:56:46;;;;;;;2.57;2.40;;;12.70;99.90;;;;;;5095799;28;20190;-76
2023/04/16 09:59:23;;;;;;;2.50;2.40;;;12.70;99.90;;;;;;5054864;28;20675;-77
2023/04/16 10:01:51;;;;;;;2.50;2.40;;;12.90;99.90;;;;;;5051595;28;20195;-76
2023/04/16 10:04:18;;;;;;;2.33;2.23;;;13.20;99.90;;;;;;5052442;28;20184;-78
2023/04/16 10:06:47;;;;;;;2.30;2.20;;;13.50;99.90;;;;;;5052053;28;20180;-79
2023/04/16 10:09:13;;;;;;;2.60;2.40;;;13.70;99.90;;;;;;5052257;28;20180;-81
2023/04/16 10:11:38;;;;;;;2.37;2.27;;;13.80;99.90;;;;;;5051772;28;20539;-81
2023/04/16 10:14:04;;;;;;;2.40;2.20;;;14.00;99.90;;;;;;5052335;28;20191;-81
2023/04/16 10:16:31;;;;;;;2.70;2.50;;;14.10;99.40;;;;;;5053739;28;20172;-81
2023/04/16 10:18:58;;;;;;;2.17;2.07;;;13.90;99.40;;;;;;5052880;28;20215;-82
2023/04/16 10:21:23;;;;;;;2.20;2.10;;;14.00;99.60;;;;;;5053329;28;20168;-83
2023/04/16 10:23:51;;;;;;;3.97;2.40;;;14.20;99.20;;;;;;5052846;28;20182;-79
2023/04/16 10:26:17;;;;;;;2.60;2.43;;;14.20;98.50;;;;;;5053029;28;20175;-74
2023/04/16 10:28:44;;;;;;;2.67;2.47;;;14.30;99.00;;;;;;5052488;28;20168;-79
2023/04/16 10:31:11;;;;;;;2.47;2.37;;;14.40;99.20;;;;;;5052071;28;20663;-77
2023/04/16 10:33:40;;;;;;;1.83;1.73;;;14.60;98.50;;;;;;5051022;28;20176;-76
2023/04/16 10:36:11;;;;;;;2.53;2.33;;;14.70;98.30;;;;;;5051362;28;20182;-78
2023/04/16 10:38:49;;;;;;;2.15;2.00;;;14.60;98.40;;;;;;5050835;28;20451;-77
2023/04/16 10:41:15;;;;;;;1.90;1.80;;;14.40;98.20;;;;;;5051729;28;20264;-76
2023/04/16 10:43:43;;;;;;;1.40;1.40;;;14.00;97.50;;;;;;5052676;28;20211;-77
2023/04/16 10:46:21;;;;;;;2.10;1.67;;;13.40;97.20;;;;;;5052331;28;20670;-77
2023/04/16 10:48:48;;;;;;;1.50;1.50;;;13.10;98.70;;;;;;5052388;28;20179;-76
2023/04/16 10:51:32;;;;;;;1.40;1.40;;;13.00;98.80;;;;;;5051506;28;20179;-78
2023/04/16 10:54:07;;;;;;;1.30;1.30;;;12.90;98.40;;;;;;5052326;28;20190;-76
2023/04/16 10:56:34;;;;;;;1.20;1.20;;;12.80;98.40;;;;;;5051952;28;20181;-78
2023/04/16 10:59:03;;;;;;;1.20;1.20;;;13.00;98.70;;;;;;5091364;28;20233;-78
2023/04/16 11:01:34;;;;;;;1.40;1.40;;;13.20;98.50;;;;;;5095655;28;20248;-76
2023/04/16 11:04:20;;;;;;;3.70;1.80;;;13.40;98.40;;;;;;5096752;28;20168;-78
2023/04/16 11:07:17;;;;;;;1.10;1.10;;;13.40;98.70;;;;;;5098767;28;20198;-77
2023/04/16 11:10:05;;;;;;;2.00;1.90;;;13.20;97.60;;;;;;5105282;28;20198;-78
2023/04/16 11:12:38;;;;;;;1.80;1.70;;;13.20;98.20;;;;;;5099585;28;20173;-75
2023/04/16 11:15:05;;;;;;;1.10;1.10;;;13.20;97.70;;;;;;5097418;28;20175;-76
2023/04/16 11:17:39;;;;;;;1.30;1.30;;;13.10;98.00;;;;;;5097994;28;20534;-77
2023/04/16 11:20:07;;;;;;;1.40;1.40;;;13.00;98.40;;;;;;5094842;28;20172;-77
2023/04/16 11:22:37;;;;;;;1.27;1.27;;;13.10;98.50;;;;;;5094456;28;20180;-77
2023/04/16 11:25:03;;;;;;;1.47;1.47;;;13.30;98.70;;;;;;5094219;28;20170;-77
2023/04/16 11:27:32;;;;;;;1.13;1.13;;;13.30;97.80;;;;;;5094343;28;20763;-79
2023/04/16 11:30:00;;;;;;;1.13;1.13;;;13.20;98.40;;;;;;5093762;28;20186;-79
2023/04/16 11:32:26;;;;;;;1.10;1.00;;;13.30;98.40;;;;;;5095296;28;20182;-74
2023/04/16 11:34:52;;;;;;;0.80;0.80;;;13.50;97.80;;;;;;5094219;28;20182;-78
2023/04/16 11:37:32;;;;;;;1.00;1.00;;;13.70;97.90;;;;;;5095518;28;20744;-76
2023/04/16 11:39:58;;;;;;;1.10;1.10;;;13.90;97.80;;;;;;5094972;28;20190;-75
2023/04/16 11:42:27;;;;;;;1.00;1.00;;;14.20;98.10;;;;;;5094072;28;20167;-76
2023/04/16 11:44:56;;;;;;;0.90;0.90;;;14.50;97.30;;;;;;5095607;28;20174;-76
2023/04/16 11:47:23;;;;;;;1.10;1.10;;;14.70;97.10;;;;;;5095411;28;20175;-79
2023/04/16 11:49:49;;;;;;;1.10;1.10;;;14.80;96.70;;;;;;5094632;28;20182;-76
2023/04/16 11:52:35;;;;;;;0.90;0.90;;;14.80;96.50;;;;;;5093520;28;20182;-76
2023/04/16 11:55:01;;;;;;;1.03;1.03;;;14.90;96.20;;;;;;5095250;28;20170;-76
2023/04/16 11:57:29;;;;;;;1.00;1.00;;;15.00;95.90;;;;;;5093427;28;20226;-77
2023/04/16 11:59:56;;;;;;;1.00;1.00;;;14.90;96.00;;;;;;5094118;28;20632;-81
2023/04/16 12:02:40;;;;;;;0.90;0.90;;;14.70;96.20;;;;;;5095275;28;20248;-78
2023/04/16 12:05:29;;;;;;;0.97;0.97;;;14.50;96.60;;;;;;5094138;28;20637;-79
2023/04/16 12:07:55;;;;;;;1.30;1.20;;;14.20;96.60;;;;;;5093450;28;20190;-78
2023/04/16 12:10:20;;;;;;;0.93;0.93;;;14.00;97.00;;;;;;5094355;28;20170;-77
2023/04/16 12:12:46;;;;;;;0.80;0.80;;;13.90;97.50;;;;;;5094242;28;20231;-78
2023/04/16 12:15:12;;;;;;;0.90;0.90;;;13.80;97.60;;;;;;5094699;28;20170;-75
2023/04/16 12:17:38;;;;;;;0.80;0.70;;;13.80;98.10;;;;;;5094627;28;20577;-78
2023/04/16 12:20:14;;;;;;;0.80;0.80;;;13.70;99.40;;;;;;5094854;28;20178;-77
2023/04/16 12:22:45;;;;;;;0.90;0.90;;;13.70;99.10;;;;;;5094837;28;20165;-77
2023/04/16 12:25:13;;;;;;;0.93;0.93;;;13.80;98.60;;;;;;5095174;28;20174;-75
2023/04/16 12:27:54;;;;;;;0.90;0.90;;;13.60;97.80;;;;;;5095186;28;20666;-77
2023/04/16 12:30:22;;;;;;;3.07;2.77;;;13.70;98.40;;;;;;5096066;28;20176;-76
2023/04/16 12:32:50;;;;;;;2.27;2.17;;;13.70;98.10;;;;;;5096653;28;20264;-77
2023/04/16 12:35:30;;;;;;;1.27;1.27;;;13.70;97.90;;;;;;5093458;28;20178;-77
2023/04/16 12:37:56;;;;;;;1.80;1.70;;;13.70;97.20;;;;;;5094812;28;20721;-76
2023/04/16 12:40:22;;;;;;;1.13;1.13;;;13.80;97.80;;;;;;5095029;28;20178;-76
2023/04/16 12:42:47;;;;;;;0.70;0.70;;;13.90;96.80;;;;;;5104178;28;20179;-78
2023/04/16 12:45:13;;;;;;;1.03;1.03;;;13.90;96.80;;;;;;5095066;28;20177;-75
2023/04/16 12:47:39;;;;;;;1.10;1.10;;;14.00;96.70;;;;;;5094816;28;20168;-75
2023/04/16 12:50:06;;;;;;;0.60;0.60;;;14.00;96.40;;;;;;5096159;28;20178;-76
2023/04/16 12:52:32;;;;;;;0.63;0.63;;;13.80;95.60;;;;;;5098974;28;20258;-77